Time;durP1;ratioP1;P1;durP2;ratioP2;P2;SDS_P1;SDS_P2;PMS_P1;PMS_P2;Temp;Humidity;BMP_temperature;BMP_pressure;BME280_temperature;BME280_humidity;BME280_pressure;Samples;Min_cycle;Max_cycle;Signal;HPM_P1;HPM_P2
2021/09/26 00:02:16;;;;;;;4.57;3.38;;;;;;;;;;5037381;28;20068;-86
2021/09/26 00:04:43;;;;;;;6.13;3.58;;;;;;;;;;5034413;28;20495;-86
2021/09/26 00:07:09;;;;;;;6.07;3.95;;;;;;;;;;5041279;28;20048;-86
2021/09/26 00:09:36;;;;;;;5.88;4.10;;;;;;;;;;5037047;28;20045;-85
2021/09/26 00:12:03;;;;;;;6.97;3.60;;;;;;;;;;5034085;28;20071;-87
2021/09/26 00:14:31;;;;;;;6.47;3.58;;;;;;;;;;5031662;28;20517;-85
2021/09/26 00:16:59;;;;;;;5.75;3.75;;;;;;;;;;5034852;28;20052;-84
2021/09/26 00:19:26;;;;;;;6.95;3.92;;;;;;;;;;5032734;28;20045;-84
2021/09/26 00:21:52;;;;;;;4.68;3.50;;;;;;;;;;5051623;28;20627;-84
2021/09/26 00:24:19;;;;;;;5.38;4.03;;;;;;;;;;5048749;28;20045;-84
2021/09/26 00:26:46;;;;;;;7.65;4.57;;;;;;;;;;5038102;28;20056;-84
2021/09/26 00:29:13;;;;;;;6.03;3.63;;;;;;;;;;5034376;28;20048;-84
2021/09/26 00:31:41;;;;;;;6.22;3.70;;;;;;;;;;5042511;28;20048;-85
2021/09/26 00:34:10;;;;;;;7.10;3.65;;;;;;;;;;5032416;28;20045;-84
2021/09/26 00:36:39;;;;;;;7.45;3.47;;;;;;;;;;5046936;28;20436;-84
2021/09/26 00:39:07;;;;;;;5.22;3.47;;;;;;;;;;5031420;28;20135;-85
2021/09/26 00:41:33;;;;;;;4.60;3.35;;;;;;;;;;5046185;28;20057;-84
2021/09/26 00:44:00;;;;;;;4.65;3.13;;;;;;;;;;5030715;28;20053;-84
2021/09/26 00:46:27;;;;;;;5.95;3.90;;;;;;;;;;5047119;28;20047;-85
2021/09/26 00:48:55;;;;;;;7.90;3.85;;;;;;;;;;5049940;28;20507;-86
2021/09/26 00:51:22;;;;;;;5.78;3.60;;;;;;;;;;5036384;28;20048;-85
2021/09/26 00:53:49;;;;;;;5.55;3.20;;;;;;;;;;5034511;28;20045;-85
2021/09/26 00:56:16;;;;;;;4.88;3.05;;;;;;;;;;5029172;28;20049;-86
2021/09/26 00:58:43;;;;;;;5.57;3.40;;;;;;;;;;5046052;28;20117;-85
2021/09/26 01:01:09;;;;;;;5.80;3.50;;;;;;;;;;5050601;28;20102;-85
2021/09/26 01:03:36;;;;;;;5.03;3.30;;;;;;;;;;5048783;28;20037;-85
2021/09/26 01:09:03;;;;;;;5.15;3.35;;;;;;;;;;5084005;27;20394;-73
2021/09/26 01:11:36;;;;;;;5.53;3.67;;;;;;;;;;5085853;28;20418;-73
2021/09/26 01:14:05;;;;;;;4.80;3.22;;;;;;;;;;5083955;28;20048;-73
2021/09/26 01:16:34;;;;;;;6.38;4.18;;;;;;;;;;5082518;28;20047;-73
2021/09/26 01:19:14;;;;;;;5.57;4.00;;;;;;;;;;5082003;28;20052;-73
2021/09/26 01:21:45;;;;;;;5.97;3.83;;;;;;;;;;5081410;28;21754;-72
2021/09/26 01:24:30;;;;;;;10.40;4.13;;;;;;;;;;5077411;28;20056;-73
2021/09/26 01:27:09;;;;;;;5.78;3.50;;;;;;;;;;5079725;28;20036;-73
2021/09/26 01:30:17;;;;;;;6.22;4.00;;;;;;;;;;5073654;28;20486;-72
2021/09/26 01:32:48;;;;;;;6.40;3.47;;;;;;;;;;5082451;28;20575;-73
2021/09/26 01:35:16;;;;;;;6.13;3.60;;;;;;;;;;5079924;28;20052;-72
2021/09/26 01:37:45;;;;;;;9.25;4.07;;;;;;;;;;5078852;28;20047;-73
2021/09/26 01:40:17;;;;;;;5.13;3.10;;;;;;;;;;5082017;28;20048;-72
2021/09/26 01:42:48;;;;;;;4.88;3.42;;;;;;;;;;5082764;28;20048;-73
2021/09/26 01:45:20;;;;;;;7.50;3.90;;;;;;;;;;5082717;28;20057;-72
2021/09/26 01:47:52;;;;;;;5.43;3.45;;;;;;;;;;5084000;28;20047;-74
2021/09/26 01:50:21;;;;;;;4.88;3.40;;;;;;;;;;5078917;28;20064;-73
2021/09/26 01:52:48;;;;;;;6.68;4.50;;;;;;;;;;5073325;28;20067;-72
2021/09/26 01:55:15;;;;;;;5.75;3.78;;;;;;;;;;5077459;28;20127;-73
2021/09/26 01:57:42;;;;;;;5.25;3.70;;;;;;;;;;5082240;28;20585;-73
2021/09/26 02:00:11;;;;;;;6.20;3.88;;;;;;;;;;5079652;28;20075;-74
2021/09/26 02:02:38;;;;;;;6.97;4.25;;;;;;;;;;5083287;28;20059;-73
2021/09/26 02:05:08;;;;;;;7.45;4.18;;;;;;;;;;5082885;28;20053;-72
2021/09/26 02:07:38;;;;;;;6.95;4.28;;;;;;;;;;5082965;28;20048;-73
2021/09/26 02:10:06;;;;;;;9.02;4.97;;;;;;;;;;5085123;28;20044;-73
2021/09/26 02:12:33;;;;;;;5.53;4.22;;;;;;;;;;5084387;28;20059;-73
2021/09/26 02:15:00;;;;;;;7.45;4.20;;;;;;;;;;5080344;28;20422;-73
2021/09/26 02:17:27;;;;;;;6.82;3.70;;;;;;;;;;5080601;28;20064;-73
2021/09/26 02:19:58;;;;;;;7.43;4.25;;;;;;;;;;5067312;28;20048;-73
2021/09/26 02:22:26;;;;;;;4.65;3.10;;;;;;;;;;5068084;28;20498;-72
2021/09/26 02:24:52;;;;;;;8.00;3.78;;;;;;;;;;5070806;28;20060;-72
2021/09/26 02:27:19;;;;;;;6.25;3.70;;;;;;;;;;5070066;28;20127;-74
2021/09/26 02:29:45;;;;;;;5.15;3.50;;;;;;;;;;5069014;28;20048;-73
2021/09/26 02:32:12;;;;;;;6.45;3.72;;;;;;;;;;5067392;28;20048;-74
2021/09/26 02:34:38;;;;;;;8.10;4.57;;;;;;;;;;5064146;28;20048;-73
2021/09/26 02:37:05;;;;;;;5.60;3.90;;;;;;;;;;5061839;28;20422;-72
2021/09/26 02:39:33;;;;;;;6.70;4.30;;;;;;;;;;5057378;28;20049;-74
2021/09/26 02:42:05;;;;;;;6.70;4.03;;;;;;;;;;5063258;28;20051;-73
2021/09/26 02:44:36;;;;;;;5.22;3.92;;;;;;;;;;5067484;28;20048;-72
2021/09/26 02:47:08;;;;;;;8.38;4.38;;;;;;;;;;5066810;28;20045;-72
2021/09/26 02:49:34;;;;;;;6.43;4.20;;;;;;;;;;5068582;28;20407;-72
2021/09/26 02:52:03;;;;;;;6.38;3.78;;;;;;;;;;5066573;28;20547;-72
2021/09/26 02:54:30;;;;;;;5.55;3.75;;;;;;;;;;5062538;28;20384;-73
2021/09/26 02:56:58;;;;;;;5.50;3.75;;;;;;;;;;5063607;28;20075;-72
2021/09/26 02:59:25;;;;;;;5.68;3.80;;;;;;;;;;5063185;28;20037;-73
2021/09/26 03:01:52;;;;;;;5.85;3.33;;;;;;;;;;5064751;28;20565;-72
2021/09/26 03:04:19;;;;;;;6.80;4.20;;;;;;;;;;5066272;28;20055;-74
2021/09/26 03:06:46;;;;;;;5.72;3.80;;;;;;;;;;5067435;28;20049;-73
2021/09/26 03:09:13;;;;;;;7.15;4.03;;;;;;;;;;5068842;28;20036;-72
2021/09/26 03:11:39;;;;;;;6.78;4.00;;;;;;;;;;5066520;28;20535;-73
2021/09/26 03:14:07;;;;;;;5.65;4.20;;;;;;;;;;5067847;28;20060;-71
2021/09/26 03:16:34;;;;;;;6.55;3.65;;;;;;;;;;5065715;28;20056;-72
2021/09/26 03:19:00;;;;;;;5.03;3.80;;;;;;;;;;5068522;28;20045;-71
2021/09/26 03:21:28;;;;;;;5.28;4.35;;;;;;;;;;5069364;28;20045;-73
2021/09/26 03:23:55;;;;;;;7.88;3.97;;;;;;;;;;5066944;28;20067;-72
2021/09/26 03:26:22;;;;;;;7.78;4.10;;;;;;;;;;5068336;28;20041;-73
2021/09/26 03:28:48;;;;;;;6.45;4.32;;;;;;;;;;5067367;28;20048;-73
2021/09/26 03:31:17;;;;;;;5.72;4.20;;;;;;;;;;5063285;28;20048;-73
2021/09/26 03:33:44;;;;;;;5.97;4.32;;;;;;;;;;5068048;28;20040;-71
2021/09/26 03:36:10;;;;;;;7.32;3.92;;;;;;;;;;5068600;28;20075;-73
2021/09/26 03:38:37;;;;;;;5.80;4.03;;;;;;;;;;5067646;28;20044;-73
2021/09/26 03:41:03;;;;;;;5.63;3.70;;;;;;;;;;5067826;28;20049;-73
2021/09/26 03:43:30;;;;;;;7.38;4.20;;;;;;;;;;5066851;28;20044;-72
2021/09/26 03:45:56;;;;;;;7.38;4.22;;;;;;;;;;5068398;28;20052;-72
2021/09/26 03:48:24;;;;;;;7.20;3.88;;;;;;;;;;5068239;28;20407;-73
2021/09/26 03:50:52;;;;;;;5.55;3.67;;;;;;;;;;5065335;28;20063;-73
2021/09/26 03:53:18;;;;;;;6.88;3.85;;;;;;;;;;5065978;28;20490;-74
2021/09/26 03:55:45;;;;;;;4.82;3.40;;;;;;;;;;5066112;28;20392;-72
2021/09/26 03:58:12;;;;;;;6.60;4.30;;;;;;;;;;5060721;28;20060;-73
2021/09/26 04:00:39;;;;;;;5.40;4.05;;;;;;;;;;5063088;28;20048;-72
2021/09/26 04:03:05;;;;;;;6.13;3.72;;;;;;;;;;5067696;28;20048;-73
2021/09/26 04:05:33;;;;;;;5.97;4.18;;;;;;;;;;5068372;28;20408;-72
2021/09/26 04:07:59;;;;;;;5.22;3.45;;;;;;;;;;5062673;28;20045;-73
2021/09/26 04:10:26;;;;;;;8.63;4.10;;;;;;;;;;5065490;28;20044;-71
2021/09/26 04:12:52;;;;;;;5.57;3.63;;;;;;;;;;5066497;28;20056;-71
2021/09/26 04:15:19;;;;;;;4.55;3.45;;;;;;;;;;5066779;28;20048;-73
2021/09/26 04:17:46;;;;;;;5.82;4.22;;;;;;;;;;5065754;28;20056;-74
2021/09/26 04:20:13;;;;;;;9.07;3.67;;;;;;;;;;5065884;28;20410;-74
2021/09/26 04:22:41;;;;;;;6.90;4.03;;;;;;;;;;5063218;28;20048;-73
2021/09/26 04:25:08;;;;;;;5.15;4.18;;;;;;;;;;5068304;28;20474;-73
2021/09/26 04:27:34;;;;;;;6.47;4.60;;;;;;;;;;5064520;28;20390;-72
2021/09/26 04:30:01;;;;;;;7.10;4.00;;;;;;;;;;5066633;28;20060;-71
2021/09/26 04:32:27;;;;;;;6.03;4.32;;;;;;;;;;5065753;28;20490;-73
2021/09/26 04:34:54;;;;;;;7.88;4.70;;;;;;;;;;5064822;28;20048;-73
2021/09/26 04:37:20;;;;;;;6.60;5.25;;;;;;;;;;5062695;28;20048;-74
2021/09/26 04:39:48;;;;;;;7.15;4.22;;;;;;;;;;5063854;28;20071;-72
2021/09/26 04:42:15;;;;;;;5.03;3.70;;;;;;;;;;5064004;28;20055;-73
2021/09/26 04:44:41;;;;;;;7.35;4.32;;;;;;;;;;5068650;28;20040;-72
2021/09/26 04:47:08;;;;;;;6.00;4.30;;;;;;;;;;5065811;28;20055;-72
2021/09/26 04:49:34;;;;;;;7.78;3.92;;;;;;;;;;5066629;28;20057;-72
2021/09/26 04:52:02;;;;;;;7.38;3.95;;;;;;;;;;5068042;28;20058;-73
2021/09/26 04:54:29;;;;;;;6.05;4.13;;;;;;;;;;5063890;28;20048;-73
2021/09/26 04:56:57;;;;;;;6.20;3.90;;;;;;;;;;5062913;28;20434;-73
2021/09/26 04:59:24;;;;;;;5.97;4.03;;;;;;;;;;5064942;28;20049;-73
2021/09/26 05:01:52;;;;;;;5.55;4.07;;;;;;;;;;5062586;28;20072;-71
2021/09/26 05:04:18;;;;;;;8.15;4.65;;;;;;;;;;5063851;28;20051;-72
2021/09/26 05:06:45;;;;;;;6.72;4.10;;;;;;;;;;5064774;28;20422;-73
2021/09/26 05:09:11;;;;;;;6.35;4.18;;;;;;;;;;5063610;28;20399;-73
2021/09/26 05:11:38;;;;;;;6.80;4.43;;;;;;;;;;5067395;28;20041;-73
2021/09/26 05:14:05;;;;;;;8.25;4.57;;;;;;;;;;5065356;28;20069;-73
2021/09/26 05:16:33;;;;;;;8.48;4.45;;;;;;;;;;5066457;28;20481;-72
2021/09/26 05:19:00;;;;;;;6.72;4.57;;;;;;;;;;5063655;28;20049;-73
2021/09/26 05:21:26;;;;;;;8.98;3.90;;;;;;;;;;5064160;28;20052;-73
2021/09/26 05:23:53;;;;;;;7.68;4.85;;;;;;;;;;5063623;28;20060;-72
2021/09/26 05:26:19;;;;;;;7.18;4.28;;;;;;;;;;5063459;28;20398;-72
2021/09/26 05:28:46;;;;;;;8.15;5.00;;;;;;;;;;5065724;28;20041;-72
2021/09/26 05:31:13;;;;;;;7.75;4.10;;;;;;;;;;5064698;28;20049;-73
2021/09/26 05:33:40;;;;;;;7.80;4.80;;;;;;;;;;5064635;28;20609;-73
2021/09/26 05:36:06;;;;;;;9.18;4.40;;;;;;;;;;5063790;28;20044;-73
2021/09/26 05:38:33;;;;;;;7.90;4.45;;;;;;;;;;5065340;28;20155;-73
2021/09/26 05:41:00;;;;;;;12.23;4.82;;;;;;;;;;5063805;28;20064;-73
2021/09/26 05:43:26;;;;;;;9.60;4.80;;;;;;;;;;5066533;28;20048;-72
2021/09/26 05:45:53;;;;;;;6.00;4.63;;;;;;;;;;5064630;28;20067;-73
2021/09/26 05:48:21;;;;;;;10.20;4.38;;;;;;;;;;5063348;28;20052;-71
2021/09/26 05:50:47;;;;;;;5.75;3.80;;;;;;;;;;5062549;28;20059;-73
2021/09/26 05:53:14;;;;;;;6.70;4.75;;;;;;;;;;5064339;28;20694;-74
2021/09/26 05:55:40;;;;;;;6.80;4.05;;;;;;;;;;5056873;28;20057;-73
2021/09/26 05:58:07;;;;;;;6.55;4.10;;;;;;;;;;5067025;28;20418;-72
2021/09/26 06:00:33;;;;;;;6.90;4.53;;;;;;;;;;5067244;28;20056;-72
2021/09/26 06:03:00;;;;;;;6.80;4.22;;;;;;;;;;5068111;28;20044;-74
2021/09/26 06:05:28;;;;;;;8.30;4.22;;;;;;;;;;5068426;28;20056;-73
2021/09/26 06:07:54;;;;;;;7.28;4.93;;;;;;;;;;5069096;28;20045;-73
2021/09/26 06:10:21;;;;;;;6.40;4.07;;;;;;;;;;5070426;28;20414;-72
2021/09/26 06:12:47;;;;;;;6.53;4.40;;;;;;;;;;5066498;28;20052;-72
2021/09/26 06:15:14;;;;;;;7.93;4.22;;;;;;;;;;5068028;28;20071;-73
2021/09/26 06:17:41;;;;;;;11.82;4.78;;;;;;;;;;5067271;28;20056;-73
2021/09/26 06:20:08;;;;;;;10.15;4.65;;;;;;;;;;5068820;28;20430;-73
2021/09/26 06:22:36;;;;;;;8.45;5.07;;;;;;;;;;5069919;28;20044;-73
2021/09/26 06:25:03;;;;;;;13.50;4.82;;;;;;;;;;5066166;28;20511;-74
2021/09/26 06:27:29;;;;;;;7.68;4.20;;;;;;;;;;5069069;28;20454;-72
2021/09/26 06:29:56;;;;;;;4.80;3.75;;;;;;;;;;5068423;28;20032;-73
2021/09/26 06:32:23;;;;;;;7.55;4.03;;;;;;;;;;5067851;28;20060;-73
2021/09/26 06:34:49;;;;;;;7.00;4.60;;;;;;;;;;5068536;28;20080;-73
2021/09/26 06:37:16;;;;;;;7.22;4.07;;;;;;;;;;5067089;28;20047;-74
2021/09/26 06:39:44;;;;;;;6.80;4.35;;;;;;;;;;5071104;28;20041;-73
2021/09/26 06:42:10;;;;;;;8.80;4.82;;;;;;;;;;5069322;28;20044;-74
2021/09/26 06:44:37;;;;;;;7.47;4.53;;;;;;;;;;5070158;28;20052;-72
2021/09/26 06:47:04;;;;;;;7.38;4.38;;;;;;;;;;5069310;28;20048;-73
2021/09/26 06:49:30;;;;;;;6.32;4.57;;;;;;;;;;5068827;28;20379;-72
2021/09/26 06:51:57;;;;;;;7.05;4.25;;;;;;;;;;5067110;28;20049;-74
2021/09/26 06:54:23;;;;;;;6.47;4.53;;;;;;;;;;5066777;28;20511;-73
2021/09/26 06:56:51;;;;;;;7.13;3.97;;;;;;;;;;5061644;28;21747;-73
2021/09/26 06:59:18;;;;;;;7.38;4.55;;;;;;;;;;5064408;28;20410;-74
2021/09/26 07:01:45;;;;;;;7.78;4.30;;;;;;;;;;5066067;28;20057;-73
2021/09/26 07:04:11;;;;;;;5.60;3.90;;;;;;;;;;5068225;28;20052;-73
2021/09/26 07:06:38;;;;;;;6.70;4.28;;;;;;;;;;5070456;28;20048;-74
2021/09/26 07:09:04;;;;;;;6.25;4.50;;;;;;;;;;5067447;28;20712;-74
2021/09/26 07:11:31;;;;;;;5.25;3.83;;;;;;;;;;5067797;28;20047;-73
2021/09/26 07:13:58;;;;;;;6.07;4.18;;;;;;;;;;5070014;28;20506;-74
2021/09/26 07:16:25;;;;;;;7.95;3.85;;;;;;;;;;5067564;28;20063;-73
2021/09/26 07:18:52;;;;;;;6.80;4.15;;;;;;;;;;5068026;28;20048;-73
2021/09/26 07:21:19;;;;;;;6.18;3.88;;;;;;;;;;5067512;28;20067;-73
2021/09/26 07:23:45;;;;;;;5.70;4.05;;;;;;;;;;5066326;28;20076;-73
2021/09/26 07:26:12;;;;;;;5.40;3.50;;;;;;;;;;5062056;28;20056;-73
2021/09/26 07:28:39;;;;;;;8.80;4.20;;;;;;;;;;5065761;28;20053;-72
2021/09/26 07:31:07;;;;;;;5.55;3.78;;;;;;;;;;5069300;28;20059;-73
2021/09/26 07:33:33;;;;;;;5.70;4.05;;;;;;;;;;5065270;28;20063;-74
2021/09/26 07:36:00;;;;;;;5.70;3.90;;;;;;;;;;5064946;28;20057;-73
2021/09/26 07:38:26;;;;;;;8.25;4.10;;;;;;;;;;5067801;28;20067;-73
2021/09/26 07:40:53;;;;;;;6.95;4.30;;;;;;;;;;5064626;28;20059;-73
2021/09/26 07:43:19;;;;;;;6.57;4.40;;;;;;;;;;5065090;28;20380;-73
2021/09/26 07:45:46;;;;;;;8.52;4.28;;;;;;;;;;5064583;28;20053;-72
2021/09/26 07:48:14;;;;;;;6.45;4.50;;;;;;;;;;5066260;28;20056;-74
2021/09/26 07:50:40;;;;;;;6.40;3.97;;;;;;;;;;5065762;28;20036;-73
2021/09/26 07:53:07;;;;;;;10.38;5.45;;;;;;;;;;5066382;28;20068;-73
2021/09/26 07:55:34;;;;;;;5.07;3.60;;;;;;;;;;5059744;28;20060;-73
2021/09/26 07:58:00;;;;;;;4.90;3.58;;;;;;;;;;5061645;28;20056;-72
2021/09/26 08:00:26;;;;;;;7.05;4.50;;;;;;;;;;5066628;28;20045;-74
2021/09/26 08:02:53;;;;;;;7.18;3.90;;;;;;;;;;5062092;28;20060;-73
2021/09/26 08:05:21;;;;;;;5.30;3.60;;;;;;;;;;5065598;28;20538;-72
2021/09/26 08:07:47;;;;;;;6.63;4.45;;;;;;;;;;5061363;28;20044;-73
2021/09/26 08:10:14;;;;;;;15.02;4.43;;;;;;;;;;5066561;28;20049;-73
2021/09/26 08:12:40;;;;;;;6.93;3.70;;;;;;;;;;5064535;28;20060;-72
2021/09/26 08:15:08;;;;;;;7.60;3.75;;;;;;;;;;5066530;28;20638;-73
2021/09/26 08:17:34;;;;;;;5.47;3.53;;;;;;;;;;5066320;28;20048;-73
2021/09/26 08:20:01;;;;;;;7.57;3.97;;;;;;;;;;5066061;28;20040;-72
2021/09/26 08:22:29;;;;;;;6.80;3.58;;;;;;;;;;5067347;28;20053;-73
2021/09/26 08:24:56;;;;;;;6.28;4.00;;;;;;;;;;5064338;28;20055;-73
2021/09/26 08:27:23;;;;;;;9.70;3.15;;;;;;;;;;5065787;28;20044;-73
2021/09/26 08:29:50;;;;;;;4.65;2.80;;;;;;;;;;5066878;28;20048;-73
2021/09/26 08:32:16;;;;;;;4.93;3.20;;;;;;;;;;5064917;28;20040;-73
2021/09/26 08:34:43;;;;;;;6.07;3.80;;;;;;;;;;5066193;28;20056;-73
2021/09/26 08:37:09;;;;;;;7.07;3.60;;;;;;;;;;5064003;28;20487;-73
2021/09/26 08:39:37;;;;;;;5.45;2.95;;;;;;;;;;5063418;28;20045;-73
2021/09/26 08:42:04;;;;;;;8.02;3.92;;;;;;;;;;5063059;28;20123;-73
2021/09/26 08:44:31;;;;;;;9.63;3.22;;;;;;;;;;5066971;28;20068;-73
2021/09/26 08:46:58;;;;;;;6.13;3.28;;;;;;;;;;5066957;28;20041;-73
2021/09/26 08:49:25;;;;;;;5.20;2.78;;;;;;;;;;5066024;28;20644;-74
2021/09/26 08:51:53;;;;;;;7.80;3.00;;;;;;;;;;5066042;28;20059;-73
2021/09/26 08:54:20;;;;;;;6.38;2.88;;;;;;;;;;5061980;28;20048;-74
2021/09/26 08:56:48;;;;;;;5.35;3.05;;;;;;;;;;5059162;28;20052;-73
2021/09/26 08:59:14;;;;;;;6.22;3.53;;;;;;;;;;5062182;28;20136;-73
2021/09/26 09:01:41;;;;;;;4.95;2.88;;;;;;;;;;5057704;28;20052;-72
2021/09/26 09:04:08;;;;;;;4.95;2.90;;;;;;;;;;5062509;28;20048;-72
2021/09/26 09:06:39;;;;;;;3.97;2.92;;;;;;;;;;5066181;28;20052;-73
2021/09/26 09:09:10;;;;;;;4.47;3.45;;;;;;;;;;5067158;28;20049;-73
2021/09/26 09:11:36;;;;;;;6.20;3.10;;;;;;;;;;5061801;28;20080;-74
2021/09/26 09:14:04;;;;;;;4.63;2.90;;;;;;;;;;5066821;28;20049;-73
2021/09/26 09:16:32;;;;;;;5.57;3.40;;;;;;;;;;5067940;28;20046;-73
2021/09/26 09:18:59;;;;;;;5.63;3.65;;;;;;;;;;5067415;28;20535;-72
2021/09/26 09:21:27;;;;;;;5.60;3.13;;;;;;;;;;5066961;28;20119;-72
2021/09/26 09:23:55;;;;;;;6.82;3.58;;;;;;;;;;5063631;28;20098;-72
2021/09/26 09:26:33;;;;;;;5.28;3.05;;;;;;;;;;5065169;28;20055;-73
2021/09/26 09:29:00;;;;;;;6.32;3.30;;;;;;;;;;5065548;28;20040;-73
2021/09/26 09:31:27;;;;;;;5.97;2.83;;;;;;;;;;5069495;28;20056;-73
2021/09/26 09:33:54;;;;;;;6.05;3.65;;;;;;;;;;5066870;28;20044;-72
2021/09/26 09:36:22;;;;;;;5.45;3.50;;;;;;;;;;5068070;28;20486;-73
2021/09/26 09:38:50;;;;;;;5.65;3.13;;;;;;;;;;5071986;28;20501;-72
2021/09/26 09:41:32;;;;;;;6.38;3.05;;;;;;;;;;5073189;28;20052;-72
2021/09/26 09:43:59;;;;;;;7.10;3.33;;;;;;;;;;5067795;28;20110;-72
2021/09/26 09:46:31;;;;;;;5.95;3.38;;;;;;;;;;5069842;28;20053;-73
2021/09/26 09:49:12;;;;;;;6.97;3.50;;;;;;;;;;5065870;28;20064;-73
2021/09/26 09:51:40;;;;;;;6.25;3.75;;;;;;;;;;5064034;28;20063;-72
2021/09/26 09:54:08;;;;;;;6.68;4.25;;;;;;;;;;5072745;28;20063;-73
2021/09/26 09:56:40;;;;;;;8.65;4.53;;;;;;;;;;5068690;28;20166;-72
2021/09/26 09:59:07;;;;;;;7.28;4.53;;;;;;;;;;5065241;28;20048;-73
2021/09/26 10:01:37;;;;;;;5.60;4.03;;;;;;;;;;5070201;28;20044;-72
2021/09/26 10:04:04;;;;;;;7.28;4.68;;;;;;;;;;5071019;28;20404;-72
2021/09/26 10:06:36;;;;;;;5.55;4.32;;;;;;;;;;5069532;28;20132;-72
2021/09/26 10:09:24;;;;;;;7.38;4.88;;;;;;;;;;5065890;28;20071;-75
2021/09/26 10:11:53;;;;;;;8.52;5.50;;;;;;;;;;5068058;28;20486;-74
2021/09/26 10:14:21;;;;;;;7.25;5.47;;;;;;;;;;5069330;28;20045;-74
2021/09/26 10:16:49;;;;;;;8.57;5.80;;;;;;;;;;5070140;28;20495;-74
2021/09/26 10:19:20;;;;;;;8.10;6.05;;;;;;;;;;5071650;28;20059;-72
2021/09/26 10:21:49;;;;;;;9.73;5.53;;;;;;;;;;5068362;28;20048;-72
2021/09/26 10:24:16;;;;;;;10.23;5.78;;;;;;;;;;5069964;28;20056;-71
2021/09/26 10:26:44;;;;;;;8.48;5.78;;;;;;;;;;5072603;28;20666;-71
2021/09/26 10:29:11;;;;;;;8.05;5.28;;;;;;;;;;5065332;28;20489;-74
2021/09/26 10:31:38;;;;;;;8.35;5.65;;;;;;;;;;5070117;28;20036;-71
2021/09/26 10:34:07;;;;;;;7.30;5.90;;;;;;;;;;5068392;28;20568;-72
2021/09/26 10:36:36;;;;;;;8.55;6.22;;;;;;;;;;5069340;28;20060;-72
2021/09/26 10:39:06;;;;;;;6.75;5.60;;;;;;;;;;5068197;28;20053;-72
2021/09/26 10:41:33;;;;;;;7.88;5.35;;;;;;;;;;5067638;28;20047;-74
2021/09/26 10:44:22;;;;;;;7.95;5.32;;;;;;;;;;5070727;28;20056;-73
2021/09/26 10:47:06;;;;;;;7.00;5.45;;;;;;;;;;5065979;28;20055;-73
2021/09/26 10:49:39;;;;;;;7.05;5.00;;;;;;;;;;5068434;28;20045;-74
2021/09/26 10:52:22;;;;;;;6.40;5.03;;;;;;;;;;5064834;28;20044;-74
2021/09/26 10:54:48;;;;;;;7.80;5.90;;;;;;;;;;5069148;28;20068;-74
2021/09/26 10:57:23;;;;;;;8.05;5.70;;;;;;;;;;5067711;28;20404;-74
2021/09/26 10:59:52;;;;;;;8.30;5.45;;;;;;;;;;5069547;28;20056;-73
2021/09/26 11:02:38;;;;;;;7.25;5.47;;;;;;;;;;5067950;28;20044;-74
2021/09/26 11:05:10;;;;;;;6.43;5.03;;;;;;;;;;5066840;28;20045;-74
2021/09/26 11:07:44;;;;;;;8.23;5.25;;;;;;;;;;5067356;28;20406;-74
2021/09/26 11:10:11;;;;;;;7.55;5.57;;;;;;;;;;5067114;28;20040;-74
2021/09/26 11:12:39;;;;;;;8.35;5.43;;;;;;;;;;5064640;28;20049;-75
2021/09/26 11:15:08;;;;;;;7.13;5.30;;;;;;;;;;5064498;28;20148;-72
2021/09/26 11:17:42;;;;;;;8.60;5.57;;;;;;;;;;5061845;28;20047;-73
2021/09/26 11:20:11;;;;;;;8.68;5.20;;;;;;;;;;5068684;28;20459;-73
2021/09/26 11:22:37;;;;;;;6.45;5.32;;;;;;;;;;5064292;28;20063;-73
2021/09/26 11:25:05;;;;;;;8.48;5.47;;;;;;;;;;5065396;28;20052;-73
2021/09/26 11:27:34;;;;;;;7.55;4.53;;;;;;;;;;5063511;28;20513;-73
2021/09/26 11:30:18;;;;;;;6.65;4.57;;;;;;;;;;5066597;28;20040;-72
2021/09/26 11:32:57;;;;;;;5.67;4.20;;;;;;;;;;5063349;28;20488;-73
2021/09/26 11:35:29;;;;;;;7.43;4.43;;;;;;;;;;5070497;28;20057;-73
2021/09/26 11:37:59;;;;;;;6.32;5.05;;;;;;;;;;5067169;28;20053;-72
2021/09/26 11:40:50;;;;;;;8.27;4.57;;;;;;;;;;5064528;28;20049;-72
2021/09/26 11:43:19;;;;;;;11.55;4.63;;;;;;;;;;5067022;28;20437;-73
2021/09/26 11:45:46;;;;;;;6.47;4.38;;;;;;;;;;5062360;28;20056;-72
2021/09/26 11:48:13;;;;;;;7.63;4.28;;;;;;;;;;5060495;28;20048;-72
2021/09/26 11:50:42;;;;;;;8.38;5.20;;;;;;;;;;5062401;28;20047;-73
2021/09/26 11:53:11;;;;;;;6.53;4.53;;;;;;;;;;5065438;28;20067;-73
2021/09/26 11:55:39;;;;;;;6.10;4.20;;;;;;;;;;5065985;28;20056;-74
2021/09/26 11:58:07;;;;;;;9.38;4.50;;;;;;;;;;5064129;28;20049;-73
2021/09/26 12:00:37;;;;;;;7.75;4.30;;;;;;;;;;5065727;28;20049;-73
2021/09/26 12:03:19;;;;;;;8.63;4.55;;;;;;;;;;5063802;28;20052;-73
2021/09/26 12:05:47;;;;;;;8.68;4.07;;;;;;;;;;5066873;28;20109;-73
2021/09/26 12:08:14;;;;;;;8.35;4.57;;;;;;;;;;5062672;28;20071;-72
2021/09/26 12:10:41;;;;;;;5.78;4.68;;;;;;;;;;5068426;28;20052;-73
2021/09/26 12:13:12;;;;;;;7.15;4.78;;;;;;;;;;5066900;28;20472;-72
2021/09/26 12:15:39;;;;;;;6.75;4.30;;;;;;;;;;5063913;28;20044;-73
2021/09/26 12:18:06;;;;;;;7.97;4.57;;;;;;;;;;5061291;28;20055;-73
2021/09/26 12:20:32;;;;;;;7.07;4.85;;;;;;;;;;5065725;28;20052;-73
2021/09/26 12:23:01;;;;;;;7.72;4.30;;;;;;;;;;5065182;28;20060;-72
2021/09/26 12:25:31;;;;;;;7.68;4.80;;;;;;;;;;5068375;28;20079;-73
2021/09/26 12:28:01;;;;;;;6.60;4.75;;;;;;;;;;5066627;28;20052;-73
2021/09/26 12:30:31;;;;;;;12.13;5.03;;;;;;;;;;5064698;28;20059;-73
2021/09/26 12:33:01;;;;;;;9.38;4.90;;;;;;;;;;5062934;28;20123;-72
2021/09/26 12:35:32;;;;;;;7.85;4.60;;;;;;;;;;5058737;28;20045;-72
2021/09/26 12:38:02;;;;;;;10.18;5.05;;;;;;;;;;5067675;28;20059;-73
2021/09/26 12:40:33;;;;;;;6.15;4.57;;;;;;;;;;5065845;28;20110;-73
2021/09/26 12:43:01;;;;;;;6.22;4.28;;;;;;;;;;5063330;28;20041;-73
2021/09/26 12:45:36;;;;;;;7.25;4.80;;;;;;;;;;5060481;28;20506;-74
2021/09/26 12:48:03;;;;;;;;;;;;;;;;;;5064997;28;20049;-74
2021/09/26 12:50:30;;;;;;;8.27;4.95;;;;;;;;;;5067042;28;20298;-75
2021/09/26 12:52:57;;;;;;;6.97;4.75;;;;;;;;;;5066727;28;20061;-71
2021/09/26 12:55:27;;;;;;;9.50;4.78;;;;;;;;;;5060993;28;20056;-72
2021/09/26 12:57:55;;;;;;;7.22;5.05;;;;;;;;;;5063403;28;20617;-73
2021/09/26 13:00:30;;;;;;;6.53;4.90;;;;;;;;;;5066293;28;20055;-73
2021/09/26 13:02:59;;;;;;;8.82;4.78;;;;;;;;;;5066277;28;20079;-73
2021/09/26 13:05:30;;;;;;;6.72;4.47;;;;;;;;;;5062525;28;20464;-74
2021/09/26 13:08:08;;;;;;;7.70;5.13;;;;;;;;;;5057585;28;20059;-74
2021/09/26 13:10:35;;;;;;;13.02;6.47;;;;;;;;;;5065419;28;20049;-72
2021/09/26 13:13:16;;;;;;;18.73;6.45;;;;;;;;;;5065656;28;20052;-73
2021/09/26 13:15:44;;;;;;;5.93;4.80;;;;;;;;;;5063233;28;20048;-72
2021/09/26 13:18:18;;;;;;;8.13;5.10;;;;;;;;;;5066570;28;20052;-72
2021/09/26 13:20:46;;;;;;;6.50;5.47;;;;;;;;;;5066099;28;20410;-72
2021/09/26 13:23:24;;;;;;;7.43;5.25;;;;;;;;;;5064430;28;20053;-73
2021/09/26 13:25:51;;;;;;;10.23;5.78;;;;;;;;;;5060817;28;20049;-72
2021/09/26 13:28:21;;;;;;;7.90;5.57;;;;;;;;;;5067471;28;20054;-72
2021/09/26 13:31:01;;;;;;;8.25;5.38;;;;;;;;;;5062860;28;20040;-72
2021/09/26 13:33:30;;;;;;;7.25;5.20;;;;;;;;;;5063017;28;20048;-72
2021/09/26 13:36:06;;;;;;;6.80;5.22;;;;;;;;;;5064635;28;20057;-73
2021/09/26 13:38:33;;;;;;;8.10;5.80;;;;;;;;;;5060837;28;20044;-73
2021/09/26 13:41:22;;;;;;;8.00;5.45;;;;;;;;;;5065076;28;20496;-72
2021/09/26 13:44:02;;;;;;;8.60;5.65;;;;;;;;;;5064735;28;20053;-72
2021/09/26 13:46:29;;;;;;;8.57;6.10;;;;;;;;;;5061621;28;20051;-72
2021/09/26 13:48:56;;;;;;;8.30;5.85;;;;;;;;;;5063738;28;20130;-72
2021/09/26 13:51:23;;;;;;;8.25;5.63;;;;;;;;;;5063126;28;20526;-73
2021/09/26 13:53:49;;;;;;;8.43;5.72;;;;;;;;;;5063670;28;20055;-73
2021/09/26 13:56:16;;;;;;;7.80;5.68;;;;;;;;;;5064070;28;20078;-72
2021/09/26 13:58:42;;;;;;;6.45;5.45;;;;;;;;;;5064883;28;20056;-72
2021/09/26 14:01:13;;;;;;;6.80;6.05;;;;;;;;;;5063490;28;20037;-72
2021/09/26 14:03:40;;;;;;;8.70;6.47;;;;;;;;;;5059610;28;20121;-72
2021/09/26 14:06:06;;;;;;;10.35;6.40;;;;;;;;;;5066746;28;20491;-73
2021/09/26 14:08:33;;;;;;;8.20;6.63;;;;;;;;;;5063803;28;20239;-73
2021/09/26 14:11:01;;;;;;;9.50;6.80;;;;;;;;;;5065861;28;20049;-73
2021/09/26 14:13:30;;;;;;;8.07;6.20;;;;;;;;;;5064998;28;20087;-72
2021/09/26 14:15:57;;;;;;;8.48;6.57;;;;;;;;;;5062438;28;20486;-72
2021/09/26 14:18:25;;;;;;;9.00;5.63;;;;;;;;;;5065708;28;20049;-73
2021/09/26 14:20:52;;;;;;;8.25;6.07;;;;;;;;;;5065249;28;20045;-72
2021/09/26 14:23:18;;;;;;;11.63;5.78;;;;;;;;;;5068148;28;20048;-73
2021/09/26 14:25:45;;;;;;;9.07;5.78;;;;;;;;;;5065150;28;20056;-73
2021/09/26 14:28:12;;;;;;;7.68;5.70;;;;;;;;;;5068833;28;20475;-73
2021/09/26 14:30:40;;;;;;;7.38;5.25;;;;;;;;;;5064735;28;20049;-73
2021/09/26 14:33:07;;;;;;;7.80;5.88;;;;;;;;;;5065530;28;20072;-73
2021/09/26 14:35:35;;;;;;;6.18;4.90;;;;;;;;;;5064432;28;20053;-72
2021/09/26 14:38:02;;;;;;;6.88;4.20;;;;;;;;;;5068537;28;20044;-73
2021/09/26 14:40:29;;;;;;;6.55;4.45;;;;;;;;;;5070636;28;20056;-72
2021/09/26 14:42:56;;;;;;;5.15;3.53;;;;;;;;;;5065542;28;20045;-73
2021/09/26 14:45:25;;;;;;;5.47;3.53;;;;;;;;;;5067634;28;20064;-74
2021/09/26 14:47:52;;;;;;;5.65;3.63;;;;;;;;;;5066753;28;20056;-73
2021/09/26 14:50:19;;;;;;;4.28;3.45;;;;;;;;;;5068945;28;20104;-73
2021/09/26 14:52:47;;;;;;;7.18;4.05;;;;;;;;;;5069985;28;20058;-73
2021/09/26 14:55:16;;;;;;;7.88;4.20;;;;;;;;;;5067740;28;20497;-73